Time;durP1;ratioP1;P1;durP2;ratioP2;P2;SDS_P1;SDS_P2;PMS_P1;PMS_P2;Temp;Humidity;BMP_temperature;BMP_pressure;BME280_temperature;BME280_humidity;BME280_pressure;Samples;Min_cycle;Max_cycle;Signal;HPM_P1;HPM_P2
2023/12/17 00:01:02;;;;;;;;;;;;;;;;;;5127603;28;19922;-60
2023/12/17 00:03:33;;;;;;;;;;;;;;;;;;5143719;28;20330;-60
2023/12/17 00:06:04;;;;;;;;;;;;;;;;;;5128511;28;20137;-60
2023/12/17 00:08:35;;;;;;;;;;;;;;;;;;5144539;28;19918;-61
2023/12/17 00:11:06;;;;;;;;;;;;;;;;;;5127622;28;20134;-60
2023/12/17 00:13:37;;;;;;;;;;;;;;;;;;5127626;28;19949;-61
2023/12/17 00:16:08;;;;;;;;;;;;;;;;;;5141501;28;21495;-60
2023/12/17 00:18:39;;;;;;;;;;;;;;;;;;5127641;28;20009;-61
2023/12/17 00:21:10;;;;;;;;;;;;;;;;;;5126236;28;19918;-61
2023/12/17 00:23:41;;;;;;;;;;;;;;;;;;5143263;28;19918;-63
2023/12/17 00:26:12;;;;;;;;;;;;;;;;;;5143136;28;19918;-63
2023/12/17 00:28:44;;;;;;;;;;;;;;;;;;5143358;28;20017;-60
2023/12/17 00:31:15;;;;;;;;;;;;;;;;;;5127020;28;20395;-61
2023/12/17 00:33:46;;;;;;;;;;;;;;;;;;5141304;28;19922;-62
2023/12/17 00:36:17;;;;;;;;;;;;;;;;;;5126621;28;20389;-62
2023/12/17 00:38:48;;;;;;;;;;;;;;;;;;5130287;28;19922;-60
2023/12/17 00:41:19;;;;;;;;;;;;;;;;;;5126982;28;19929;-61
2023/12/17 00:43:50;;;;;;;;;;;;;;;;;;5130915;28;20364;-62
2023/12/17 00:46:21;;;;;;;;;;;;;;;;;;5151154;28;19922;-61
2023/12/17 00:48:52;;;;;;;;;;;;;;;;;;5127146;28;20360;-61
2023/12/17 00:51:23;;;;;;;;;;;;;;;;;;5143044;28;19941;-62
2023/12/17 00:53:54;;;;;;;;;;;;;;;;;;5142954;28;20029;-61
2023/12/17 00:56:25;;;;;;;;;;;;;;;;;;5142787;28;20344;-60
2023/12/17 00:58:56;;;;;;;;;;;;;;;;;;5126422;28;19922;-61
2023/12/17 01:01:27;;;;;;;;;;;;;;;;;;5126546;28;20384;-60
2023/12/17 01:03:58;;;;;;;;;;;;;;;;;;5143185;28;19985;-61
2023/12/17 01:06:29;;;;;;;;;;;;;;;;;;5142072;28;19917;-62
2023/12/17 01:09:00;;;;;;;;;;;;;;;;;;5126647;28;19922;-61
2023/12/17 01:11:31;;;;;;;;;;;;;;;;;;5143112;28;19933;-62
2023/12/17 01:14:02;;;;;;;;;;;;;;;;;;5127384;28;19945;-62
2023/12/17 01:16:33;;;;;;;;;;;;;;;;;;5155547;28;20325;-62
2023/12/17 01:19:04;;;;;;;;;;;;;;;;;;5127258;28;19918;-62
2023/12/17 01:21:35;;;;;;;;;;;;;;;;;;5143092;28;20004;-61
2023/12/17 01:24:07;;;;;;;;;;;;;;;;;;5142544;28;19922;-62
2023/12/17 01:26:38;;;;;;;;;;;;;;;;;;5159536;28;20384;-62
2023/12/17 01:29:09;;;;;;;;;;;;;;;;;;5144144;28;19922;-62
2023/12/17 01:31:40;;;;;;;;;;;;;;;;;;5122862;28;20254;-61
2023/12/17 01:34:11;;;;;;;;;;;;;;;;;;5141695;28;20261;-62
2023/12/17 01:36:42;;;;;;;;;;;;;;;;;;5142677;28;19968;-61
2023/12/17 01:39:13;;;;;;;;;;;;;;;;;;5126534;28;19914;-62
2023/12/17 01:41:44;;;;;;;;;;;;;;;;;;5126260;28;19924;-62
2023/12/17 01:44:16;;;;;;;;;;;;;;;;;;5142108;28;19918;-63
2023/12/17 01:46:47;;;;;;;;;;;;;;;;;;5144037;28;20009;-63
2023/12/17 01:49:18;;;;;;;;;;;;;;;;;;5126481;28;20348;-63
2023/12/17 01:51:49;;;;;;;;;;;;;;;;;;5126155;28;19922;-62
2023/12/17 01:54:19;;;;;;;;;;;;;;;;;;5126209;28;19926;-62
2023/12/17 01:56:50;;;;;;;;;;;;;;;;;;5142050;28;20381;-63
2023/12/17 01:59:22;;;;;;;;;;;;;;;;;;5126331;28;19922;-63
2023/12/17 02:01:53;;;;;;;;;;;;;;;;;;5126478;28;19922;-63
2023/12/17 02:04:24;;;;;;;;;;;;;;;;;;5154882;28;20292;-62
2023/12/17 02:06:55;;;;;;;;;;;;;;;;;;5125806;28;19956;-63
2023/12/17 02:09:26;;;;;;;;;;;;;;;;;;5141700;28;20269;-63
2023/12/17 02:11:57;;;;;;;;;;;;;;;;;;5141822;28;20416;-63
2023/12/17 02:14:28;;;;;;;;;;;;;;;;;;5142019;28;19918;-63
2023/12/17 02:16:59;;;;;;;;;;;;;;;;;;5126366;28;19918;-64
2023/12/17 02:19:30;;;;;;;;;;;;;;;;;;5141570;28;19976;-60
2023/12/17 02:22:01;;;;;;;;;;;;;;;;;;5142095;28;19922;-62
2023/12/17 02:24:33;;;;;;;;;;;;;;;;;;5142302;28;19941;-62
2023/12/17 02:27:04;;;;;;;;;;;;;;;;;;5141906;28;19921;-63
2023/12/17 02:29:38;;;;;;;;;;;;;;;;;;5141805;28;19989;-62
2023/12/17 02:32:10;;;;;;;;;;;;;;;;;;5125491;28;19965;-58
2023/12/17 02:34:41;;;;;;;;;;;;;;;;;;5142346;28;20682;-59
2023/12/17 02:37:12;;;;;;;;;;;;;;;;;;5129877;28;19921;-59
2023/12/17 02:39:43;;;;;;;;;;;;;;;;;;5154536;28;20009;-59
2023/12/17 02:42:14;;;;;;;;;;;;;;;;;;5143806;28;19992;-58
2023/12/17 02:44:45;;;;;;;;;;;;;;;;;;5137375;28;19928;-59
2023/12/17 02:47:16;;;;;;;;;;;;;;;;;;5141999;28;19918;-58
2023/12/17 02:49:47;;;;;;;;;;;;;;;;;;5142093;28;20293;-58
2023/12/17 02:52:18;;;;;;;;;;;;;;;;;;5125994;28;19918;-59
2023/12/17 02:54:49;;;;;;;;;;;;;;;;;;5125101;28;19925;-59
2023/12/17 02:57:24;;;;;;;;;;;;;;;;;;5125763;28;19935;-58
2023/12/17 02:59:56;;;;;;;;;;;;;;;;;;5141650;28;19933;-63
2023/12/17 03:02:27;;;;;;;;;;;;;;;;;;5141912;28;19929;-59
2023/12/17 03:04:58;;;;;;;;;;;;;;;;;;5125473;28;19918;-58
2023/12/17 03:07:29;;;;;;;;;;;;;;;;;;5140787;28;19926;-58
2023/12/17 03:10:00;;;;;;;;;;;;;;;;;;5141499;28;19922;-58
2023/12/17 03:12:31;;;;;;;;;;;;;;;;;;5147763;28;19917;-57
2023/12/17 03:15:02;;;;;;;;;;;;;;;;;;5125787;28;20296;-58
2023/12/17 03:17:35;;;;;;;;;;;;;;;;;;5125584;28;19918;-58
2023/12/17 03:20:06;;;;;;;;;;;;;;;;;;5125502;28;19918;-58
2023/12/17 03:22:37;;;;;;;;;;;;;;;;;;5127935;28;19928;-58
2023/12/17 03:25:08;;;;;;;;;;;;;;;;;;5134286;28;19918;-58
2023/12/17 03:27:39;;;;;;;;;;;;;;;;;;5146121;28;19997;-58
2023/12/17 03:30:10;;;;;;;;;;;;;;;;;;5145203;28;20000;-59
2023/12/17 03:32:41;;;;;;;;;;;;;;;;;;5129205;28;19918;-58
2023/12/17 03:35:12;;;;;;;;;;;;;;;;;;5129231;28;19918;-58
2023/12/17 03:37:43;;;;;;;;;;;;;;;;;;5129177;28;20351;-58
2023/12/17 03:40:14;;;;;;;;;;;;;;;;;;5144902;28;20062;-58
2023/12/17 03:42:45;;;;;;;;;;;;;;;;;;5145153;28;19924;-58
2023/12/17 03:45:16;;;;;;;;;;;;;;;;;;5140578;28;19921;-59
2023/12/17 03:47:47;;;;;;;;;;;;;;;;;;5128811;28;19918;-58
2023/12/17 03:50:18;;;;;;;;;;;;;;;;;;5128650;28;20366;-58
2023/12/17 03:52:49;;;;;;;;;;;;;;;;;;5128707;28;19918;-60
2023/12/17 03:55:20;;;;;;;;;;;;;;;;;;5144713;28;20285;-61
2023/12/17 03:57:51;;;;;;;;;;;;;;;;;;5145054;28;20341;-60
2023/12/17 04:00:22;;;;;;;;;;;;;;;;;;5124652;28;19922;-60
2023/12/17 04:02:53;;;;;;;;;;;;;;;;;;5142662;28;20574;-60
2023/12/17 04:05:28;;;;;;;;;;;;;;;;;;5144250;28;19925;-60
2023/12/17 04:07:59;;;;;;;;;;;;;;;;;;5144470;28;20308;-61
2023/12/17 04:10:30;;;;;;;;;;;;;;;;;;5144082;28;20338;-60
2023/12/17 04:13:01;;;;;;;;;;;;;;;;;;5154420;28;20000;-61
2023/12/17 04:15:32;;;;;;;;;;;;;;;;;;5147295;28;19918;-59
2023/12/17 04:18:03;;;;;;;;;;;;;;;;;;5156133;28;19972;-58
2023/12/17 04:20:34;;;;;;;;;;;;;;;;;;5143595;28;20518;-58
2023/12/17 04:23:05;;;;;;;;;;;;;;;;;;5127754;28;19929;-59
2023/12/17 04:25:36;;;;;;;;;;;;;;;;;;5143799;28;19973;-64
2023/12/17 04:28:07;;;;;;;;;;;;;;;;;;5144246;28;19918;-64
2023/12/17 04:30:38;;;;;;;;;;;;;;;;;;5127800;28;19926;-64
2023/12/17 04:33:09;;;;;;;;;;;;;;;;;;5138673;28;19921;-61
2023/12/17 04:35:40;;;;;;;;;;;;;;;;;;5156146;28;20587;-62
2023/12/17 04:38:11;;;;;;;;;;;;;;;;;;5156933;28;19926;-61
2023/12/17 04:40:45;;;;;;;;;;;;;;;;;;5127571;28;19918;-63
2023/12/17 04:43:16;;;;;;;;;;;;;;;;;;5127775;28;19925;-63
2023/12/17 04:45:47;;;;;;;;;;;;;;;;;;5140341;28;20365;-63
2023/12/17 04:48:18;;;;;;;;;;;;;;;;;;5143747;28;20274;-64
2023/12/17 04:50:49;;;;;;;;;;;;;;;;;;5127738;28;19922;-64
2023/12/17 04:53:20;;;;;;;;;;;;;;;;;;5143619;28;19926;-64
2023/12/17 04:55:51;;;;;;;;;;;;;;;;;;5143019;28;19922;-60
2023/12/17 04:58:22;;;;;;;;;;;;;;;;;;5127585;28;19922;-61
2023/12/17 05:00:54;;;;;;;;;;;;;;;;;;5128025;28;19918;-63
2023/12/17 05:03:25;;;;;;;;;;;;;;;;;;5143486;28;19922;-63
2023/12/17 05:05:56;;;;;;;;;;;;;;;;;;5127866;28;19944;-60
2023/12/17 05:08:27;;;;;;;;;;;;;;;;;;5127512;28;19992;-59
2023/12/17 05:10:58;;;;;;;;;;;;;;;;;;5143492;28;19965;-59
2023/12/17 05:13:29;;;;;;;;;;;;;;;;;;5127365;28;20389;-59
2023/12/17 05:16:00;;;;;;;;;;;;;;;;;;5132734;28;19924;-59
2023/12/17 05:18:31;;;;;;;;;;;;;;;;;;5156004;28;19918;-59
2023/12/17 05:21:02;;;;;;;;;;;;;;;;;;5144683;28;19922;-59
2023/12/17 05:23:33;;;;;;;;;;;;;;;;;;5151837;28;19922;-59
2023/12/17 05:26:04;;;;;;;;;;;;;;;;;;5142498;28;20441;-58
2023/12/17 05:28:37;;;;;;;;;;;;;;;;;;5130067;28;19918;-58
2023/12/17 05:31:08;;;;;;;;;;;;;;;;;;5129222;28;19929;-58
2023/12/17 05:33:39;;;;;;;;;;;;;;;;;;5127619;28;19972;-61
2023/12/17 05:36:10;;;;;;;;;;;;;;;;;;5144266;28;20318;-62
2023/12/17 05:38:42;;;;;;;;;;;;;;;;;;5142522;28;19968;-61
2023/12/17 05:41:13;;;;;;;;;;;;;;;;;;5126848;28;19945;-61
2023/12/17 05:43:44;;;;;;;;;;;;;;;;;;5126467;28;20581;-61
2023/12/17 05:46:15;;;;;;;;;;;;;;;;;;5143053;28;20008;-62
2023/12/17 05:48:46;;;;;;;;;;;;;;;;;;5126540;28;19925;-60
2023/12/17 05:51:17;;;;;;;;;;;;;;;;;;5126754;28;19922;-59
2023/12/17 05:53:48;;;;;;;;;;;;;;;;;;5142525;28;19918;-61
2023/12/17 05:56:19;;;;;;;;;;;;;;;;;;5126458;28;19925;-62
2023/12/17 05:58:50;;;;;;;;;;;;;;;;;;5132257;28;20292;-63
2023/12/17 06:01:21;;;;;;;;;;;;;;;;;;5147238;28;19918;-58
2023/12/17 06:03:52;;;;;;;;;;;;;;;;;;5152795;28;19918;-57
2023/12/17 06:06:23;;;;;;;;;;;;;;;;;;5122220;28;19919;-58
2023/12/17 06:08:53;;;;;;;;;;;;;;;;;;5139741;28;19918;-59
2023/12/17 06:11:24;;;;;;;;;;;;;;;;;;5126269;28;19937;-58
2023/12/17 06:13:55;;;;;;;;;;;;;;;;;;5125967;28;20814;-58
2023/12/17 06:16:27;;;;;;;;;;;;;;;;;;5143374;28;20255;-59
2023/12/17 06:18:58;;;;;;;;;;;;;;;;;;5154216;28;19972;-58
2023/12/17 06:21:29;;;;;;;;;;;;;;;;;;5142295;28;19918;-59
2023/12/17 06:24:02;;;;;;;;;;;;;;;;;;5142316;28;19918;-59
2023/12/17 06:26:33;;;;;;;;;;;;;;;;;;5142355;28;20348;-59
2023/12/17 06:29:04;;;;;;;;;;;;;;;;;;5142335;28;20048;-58
2023/12/17 06:31:35;;;;;;;;;;;;;;;;;;5141820;28;20282;-58
2023/12/17 06:34:06;;;;;;;;;;;;;;;;;;5141889;28;19983;-58
2023/12/17 06:36:37;;;;;;;;;;;;;;;;;;5141793;28;20362;-58
2023/12/17 06:39:09;;;;;;;;;;;;;;;;;;5141405;28;19926;-60
2023/12/17 06:41:40;;;;;;;;;;;;;;;;;;5125761;28;19926;-58
2023/12/17 06:44:11;;;;;;;;;;;;;;;;;;5141543;28;19977;-59
2023/12/17 06:46:42;;;;;;;;;;;;;;;;;;5142273;28;19981;-58
2023/12/17 06:49:13;;;;;;;;;;;;;;;;;;5143195;28;19918;-58
2023/12/17 06:51:44;;;;;;;;;;;;;;;;;;5142099;28;20214;-58
2023/12/17 06:54:15;;;;;;;;;;;;;;;;;;5128360;28;19933;-58
2023/12/17 06:56:46;;;;;;;;;;;;;;;;;;5138994;28;19922;-58
2023/12/17 06:59:17;;;;;;;;;;;;;;;;;;5147317;28;19918;-58
2023/12/17 07:01:48;;;;;;;;;;;;;;;;;;5129793;28;19918;-59
2023/12/17 07:04:19;;;;;;;;;;;;;;;;;;5129380;28;20032;-59
2023/12/17 07:06:50;;;;;;;;;;;;;;;;;;5145580;28;19921;-59
2023/12/17 07:09:21;;;;;;;;;;;;;;;;;;5144470;28;20317;-59
2023/12/17 07:11:52;;;;;;;;;;;;;;;;;;5145340;28;20032;-60
2023/12/17 07:14:23;;;;;;;;;;;;;;;;;;5155234;28;19921;-60
2023/12/17 07:16:54;;;;;;;;;;;;;;;;;;5150195;28;20001;-60
2023/12/17 07:19:25;;;;;;;;;;;;;;;;;;5153882;28;20100;-61
2023/12/17 07:21:56;;;;;;;;;;;;;;;;;;5144794;28;19925;-62
2023/12/17 07:24:27;;;;;;;;;;;;;;;;;;5146301;28;19918;-62
2023/12/17 07:26:58;;;;;;;;;;;;;;;;;;5145060;28;19929;-61
2023/12/17 07:29:29;;;;;;;;;;;;;;;;;;5144660;28;19918;-61
2023/12/17 07:31:59;;;;;;;;;;;;;;;;;;5128503;28;19925;-62
2023/12/17 07:34:31;;;;;;;;;;;;;;;;;;5146928;28;19918;-61
2023/12/17 07:37:01;;;;;;;;;;;;;;;;;;5128713;28;19922;-61
2023/12/17 07:39:32;;;;;;;;;;;;;;;;;;5128196;28;19922;-61
2023/12/17 07:42:04;;;;;;;;;;;;;;;;;;5143751;28;19926;-61
2023/12/17 07:44:35;;;;;;;;;;;;;;;;;;5128158;28;19940;-61
2023/12/17 07:47:06;;;;;;;;;;;;;;;;;;5144395;28;20008;-61
2023/12/17 07:49:36;;;;;;;;;;;;;;;;;;5143678;28;19980;-60
2023/12/17 07:52:07;;;;;;;;;;;;;;;;;;5127687;28;19981;-59
2023/12/17 07:54:38;;;;;;;;;;;;;;;;;;5146110;28;19922;-57
2023/12/17 07:57:09;;;;;;;;;;;;;;;;;;5127783;28;20373;-58
2023/12/17 07:59:41;;;;;;;;;;;;;;;;;;5143724;28;20345;-60
2023/12/17 08:02:12;;;;;;;;;;;;;;;;;;5127899;28;20085;-57
2023/12/17 08:04:43;;;;;;;;;;;;;;;;;;5143608;28;20001;-59
2023/12/17 08:07:14;;;;;;;;;;;;;;;;;;5128533;28;20301;-58
2023/12/17 08:09:45;;;;;;;;;;;;;;;;;;5145158;28;19937;-58
2023/12/17 08:12:16;;;;;;;;;;;;;;;;;;5144464;28;19961;-57
2023/12/17 08:14:47;;;;;;;;;;;;;;;;;;5143319;28;19921;-58
2023/12/17 08:17:18;;;;;;;;;;;;;;;;;;5127441;28;19918;-58
2023/12/17 08:19:49;;;;;;;;;;;;;;;;;;5143549;28;20298;-58
2023/12/17 08:22:20;;;;;;;;;;;;;;;;;;5143541;28;19965;-58
2023/12/17 08:24:51;;;;;;;;;;;;;;;;;;5126602;28;19933;-58
2023/12/17 08:27:23;;;;;;;;;;;;;;;;;;5127447;28;20437;-57
2023/12/17 08:29:54;;;;;;;;;;;;;;;;;;5127077;28;19930;-57
2023/12/17 08:32:31;;;;;;;;;;;;;;;;;;5142831;28;20677;-59
2023/12/17 08:35:02;;;;;;;;;;;;;;;;;;5134724;28;20273;-61
2023/12/17 08:37:33;;;;;;;;;;;;;;;;;;5126534;28;19914;-61
2023/12/17 08:40:04;;;;;;;;;;;;;;;;;;5132904;28;20306;-60
2023/12/17 08:42:35;;;;;;;;;;;;;;;;;;5146879;28;19922;-61
2023/12/17 08:45:06;;;;;;;;;;;;;;;;;;5142762;28;20483;-60
2023/12/17 08:47:37;;;;;;;;;;;;;;;;;;5126539;28;19922;-61
2023/12/17 08:50:08;;;;;;;;;;;;;;;;;;5129871;28;19922;-61
2023/12/17 08:52:39;;;;;;;;;;;;;;;;;;5145978;28;19925;-60
2023/12/17 08:55:10;;;;;;;;;;;;;;;;;;5142452;28;19925;-60
2023/12/17 08:57:41;;;;;;;;;;;;;;;;;;5146181;28;19918;-60
2023/12/17 09:00:13;;;;;;;;;;;;;;;;;;5146876;28;19928;-61
2023/12/17 09:02:44;;;;;;;;;;;;;;;;;;5143008;28;20006;-61
2023/12/17 09:05:15;;;;;;;;;;;;;;;;;;5142395;28;19922;-61
2023/12/17 09:07:46;;;;;;;;;;;;;;;;;;5126614;28;19926;-61
2023/12/17 09:10:19;;;;;;;;;;;;;;;;;;5141817;28;20016;-63
2023/12/17 09:12:50;;;;;;;;;;;;;;;;;;5142658;28;19940;-60
2023/12/17 09:15:21;;;;;;;;;;;;;;;;;;5126457;28;19922;-63
2023/12/17 09:17:52;;;;;;;;;;;;;;;;;;5146643;28;19937;-62
2023/12/17 09:20:23;;;;;;;;;;;;;;;;;;5125671;28;20016;-63
2023/12/17 09:22:54;;;;;;;;;;;;;;;;;;5143216;28;20012;-61
2023/12/17 09:25:25;;;;;;;;;;;;;;;;;;5149013;28;20032;-60
2023/12/17 09:27:57;;;;;;;;;;;;;;;;;;5142311;28;19997;-60
2023/12/17 09:30:27;;;;;;;;;;;;;;;;;;5142118;28;19922;-61
2023/12/17 09:32:58;;;;;;;;;;;;;;;;;;5142930;28;19957;-62
2023/12/17 09:35:30;;;;;;;;;;;;;;;;;;5142221;28;19922;-59
2023/12/17 09:38:01;;;;;;;;;;;;;;;;;;5144667;28;19918;-58
2023/12/17 09:40:32;;;;;;;;;;;;;;;;;;5150373;28;20400;-58
2023/12/17 09:43:03;;;;;;;;;;;;;;;;;;5126264;28;19918;-58
2023/12/17 09:45:34;;;;;;;;;;;;;;;;;;5141594;28;19917;-58
2023/12/17 09:48:05;;;;;;;;;;;;;;;;;;5129572;28;19926;-59
2023/12/17 09:50:36;;;;;;;;;;;;;;;;;;5145025;28;20419;-58
2023/12/17 09:53:07;;;;;;;;;;;;;;;;;;5146708;28;19957;-58
2023/12/17 09:55:38;;;;;;;;;;;;;;;;;;5131784;28;20000;-58
2023/12/17 09:58:09;;;;;;;;;;;;;;;;;;5144856;28;19924;-58
2023/12/17 10:00:42;;;;;;;;;;;;;;;;;;5141929;28;19926;-59
2023/12/17 10:03:14;;;;;;;;;;;;;;;;;;5125414;28;19972;-57
2023/12/17 10:05:45;;;;;;;;;;;;;;;;;;5127432;28;20559;-57
2023/12/17 10:08:16;;;;;;;;;;;;;;;;;;5142601;28;19925;-59
2023/12/17 10:10:47;;;;;;;;;;;;;;;;;;5128150;28;20281;-58
2023/12/17 10:13:18;;;;;;;;;;;;;;;;;;5145549;28;19925;-58
2023/12/17 10:15:49;;;;;;;;;;;;;;;;;;5125321;28;20294;-58
2023/12/17 10:18:21;;;;;;;;;;;;;;;;;;5140759;28;19973;-57
2023/12/17 10:20:52;;;;;;;;;;;;;;;;;;5141009;28;19917;-58
2023/12/17 10:23:23;;;;;;;;;;;;;;;;;;5141096;28;19949;-60
2023/12/17 10:25:54;;;;;;;;;;;;;;;;;;5125426;28;19930;-59
2023/12/17 10:28:25;;;;;;;;;;;;;;;;;;5141985;28;20358;-57
2023/12/17 10:30:56;;;;;;;;;;;;;;;;;;5128019;28;20008;-61
2023/12/17 10:33:27;;;;;;;;;;;;;;;;;;5145698;28;19936;-62
2023/12/17 10:35:58;;;;;;;;;;;;;;;;;;5145605;28;19969;-62
2023/12/17 10:38:29;;;;;;;;;;;;;;;;;;5144656;28;20044;-63
2023/12/17 10:41:00;;;;;;;;;;;;;;;;;;5132432;28;19925;-61
2023/12/17 10:43:32;;;;;;;;;;;;;;;;;;5128057;28;19930;-61
2023/12/17 10:46:03;;;;;;;;;;;;;;;;;;5147406;28;19924;-60
2023/12/17 10:48:34;;;;;;;;;;;;;;;;;;5126414;28;20012;-62
2023/12/17 10:51:05;;;;;;;;;;;;;;;;;;5135549;28;19930;-61
2023/12/17 10:53:36;;;;;;;;;;;;;;;;;;5127859;28;19926;-59
2023/12/17 10:56:07;;;;;;;;;;;;;;;;;;5131987;28;19929;-60
2023/12/17 10:58:38;;;;;;;;;;;;;;;;;;5144446;28;19922;-60
2023/12/17 11:01:09;;;;;;;;;;;;;;;;;;5144136;28;19926;-60
2023/12/17 11:03:40;;;;;;;;;;;;;;;;;;5128690;28;19926;-60
2023/12/17 11:06:11;;;;;;;;;;;;;;;;;;5144190;28;19926;-61
2023/12/17 11:08:42;;;;;;;;;;;;;;;;;;5146184;28;19922;-60
2023/12/17 11:11:13;;;;;;;;;;;;;;;;;;5145036;28;19922;-60
2023/12/17 11:13:44;;;;;;;;;;;;;;;;;;5144160;28;20251;-61
2023/12/17 11:16:15;;;;;;;;;;;;;;;;;;5146408;28;19964;-61
2023/12/17 11:18:46;;;;;;;;;;;;;;;;;;5144455;28;20037;-61
2023/12/17 11:21:17;;;;;;;;;;;;;;;;;;5128125;28;20336;-62
2023/12/17 11:23:48;;;;;;;;;;;;;;;;;;5131851;28;19949;-61
2023/12/17 11:26:19;;;;;;;;;;;;;;;;;;5127468;28;19922;-60
2023/12/17 11:28:50;;;;;;;;;;;;;;;;;;5143656;28;19922;-62
2023/12/17 11:31:21;;;;;;;;;;;;;;;;;;5148182;28;19925;-61
2023/12/17 11:33:52;;;;;;;;;;;;;;;;;;5146983;28;19973;-62
2023/12/17 11:36:23;;;;;;;;;;;;;;;;;;5127522;28;19917;-62
2023/12/17 11:38:54;;;;;;;;;;;;;;;;;;5127638;28;19972;-62
2023/12/17 11:41:25;;;;;;;;;;;;;;;;;;5143663;28;20333;-63
2023/12/17 11:43:56;;;;;;;;;;;;;;;;;;5127000;28;19945;-61
2023/12/17 11:46:27;;;;;;;;;;;;;;;;;;5143552;28;20075;-60
2023/12/17 11:48:58;;;;;;;;;;;;;;;;;;5133437;28;20325;-61
2023/12/17 11:51:30;;;;;;;;;;;;;;;;;;5143870;28;19922;-60
2023/12/17 11:54:01;;;;;;;;;;;;;;;;;;5143930;28;19922;-60
2023/12/17 11:56:32;;;;;;;;;;;;;;;;;;5127641;28;19925;-59
2023/12/17 11:59:03;;;;;;;;;;;;;;;;;;5143816;28;19918;-61
2023/12/17 12:01:34;;;;;;;;;;;;;;;;;;5127303;28;19929;-61
2023/12/17 12:04:06;;;;;;;;;;;;;;;;;;5143899;28;20373;-62
2023/12/17 12:06:37;;;;;;;;;;;;;;;;;;5147005;28;19940;-58
2023/12/17 12:09:08;;;;;;;;;;;;;;;;;;5138095;28;19929;-60
2023/12/17 12:11:39;;;;;;;;;;;;;;;;;;5131116;28;19929;-59
2023/12/17 12:14:10;;;;;;;;;;;;;;;;;;5128468;28;20010;-61
2023/12/17 12:16:42;;;;;;;;;;;;;;;;;;5129297;28;20004;-60
2023/12/17 12:19:13;;;;;;;;;;;;;;;;;;5143809;28;19965;-61
2023/12/17 12:21:44;;;;;;;;;;;;;;;;;;5129430;28;20285;-60
2023/12/17 12:24:15;;;;;;;;;;;;;;;;;;5127310;28;19918;-62
2023/12/17 12:26:46;;;;;;;;;;;;;;;;;;5144769;28;20373;-60
2023/12/17 12:29:17;;;;;;;;;;;;;;;;;;5145905;28;20008;-61
2023/12/17 12:31:48;;;;;;;;;;;;;;;;;;5125182;28;20329;-59
2023/12/17 12:34:19;;;;;;;;;;;;;;;;;;5146039;28;19928;-59
2023/12/17 12:36:52;;;;;;;;;;;;;;;;;;5143105;28;20008;-58
2023/12/17 12:39:23;;;;;;;;;;;;;;;;;;5143080;28;19941;-58
2023/12/17 12:41:54;;;;;;;;;;;;;;;;;;5143017;28;19922;-58
2023/12/17 12:44:25;;;;;;;;;;;;;;;;;;5143197;28;19933;-58
2023/12/17 12:46:56;;;;;;;;;;;;;;;;;;5142562;28;19918;-57
2023/12/17 12:49:27;;;;;;;;;;;;;;;;;;5144281;28;19924;-57
2023/12/17 12:51:58;;;;;;;;;;;;;;;;;;5140624;28;19922;-57
2023/12/17 12:54:29;;;;;;;;;;;;;;;;;;5141951;28;19937;-57
2023/12/17 12:57:00;;;;;;;;;;;;;;;;;;5126484;28;19922;-58
2023/12/17 12:59:31;;;;;;;;;;;;;;;;;;5143766;28;19969;-58
2023/12/17 13:02:02;;;;;;;;;;;;;;;;;;5143294;28;19924;-57
2023/12/17 13:04:33;;;;;;;;;;;;;;;;;;5150382;28;20016;-57
2023/12/17 13:07:04;;;;;;;;;;;;;;;;;;5143212;28;19924;-57
2023/12/17 13:09:35;;;;;;;;;;;;;;;;;;5126713;28;20357;-58
2023/12/17 13:12:06;;;;;;;;;;;;;;;;;;5143615;28;19929;-57
2023/12/17 13:14:37;;;;;;;;;;;;;;;;;;5121929;28;20260;-60
2023/12/17 13:17:08;;;;;;;;;;;;;;;;;;5126652;28;19933;-58
2023/12/17 13:19:39;;;;;;;;;;;;;;;;;;5143271;28;20397;-59
2023/12/17 13:22:10;;;;;;;;;;;;;;;;;;5126181;28;19945;-60
2023/12/17 13:24:42;;;;;;;;;;;;;;;;;;5128522;28;20341;-60
2023/12/17 13:27:13;;;;;;;;;;;;;;;;;;5125775;28;19992;-59
2023/12/17 13:29:44;;;;;;;;;;;;;;;;;;5125147;28;20281;-61
2023/12/17 13:32:15;;;;;;;;;;;;;;;;;;5142500;28;19922;-59
2023/12/17 13:34:46;;;;;;;;;;;;;;;;;;5148501;28;19918;-59
2023/12/17 13:37:17;;;;;;;;;;;;;;;;;;5149553;28;20369;-59
2023/12/17 13:39:48;;;;;;;;;;;;;;;;;;5141752;28;19922;-60
2023/12/17 13:42:18;;;;;;;;;;;;;;;;;;5128044;28;19972;-57
2023/12/17 13:44:49;;;;;;;;;;;;;;;;;;5146970;28;19918;-58
2023/12/17 13:47:20;;;;;;;;;;;;;;;;;;5143751;28;19930;-57
2023/12/17 13:49:51;;;;;;;;;;;;;;;;;;5142303;28;19929;-57
2023/12/17 13:52:22;;;;;;;;;;;;;;;;;;5141767;28;19922;-59
2023/12/17 13:54:53;;;;;;;;;;;;;;;;;;5142577;28;20273;-59
2023/12/17 13:57:24;;;;;;;;;;;;;;;;;;5148925;28;20000;-58
2023/12/17 13:59:56;;;;;;;;;;;;;;;;;;5131909;28;20384;-58
2023/12/17 14:02:28;;;;;;;;;;;;;;;;;;5144855;28;19921;-59
2023/12/17 14:04:59;;;;;;;;;;;;;;;;;;5145379;28;19929;-58
2023/12/17 14:07:30;;;;;;;;;;;;;;;;;;5141204;28;19922;-58
2023/12/17 14:10:01;;;;;;;;;;;;;;;;;;5146855;28;19922;-59
2023/12/17 14:12:32;;;;;;;;;;;;;;;;;;5141324;28;19976;-58
2023/12/17 14:15:06;;;;;;;;;;;;;;;;;;5143896;28;19997;-58
2023/12/17 14:17:37;;;;;;;;;;;;;;;;;;5143839;28;19917;-58
2023/12/17 14:20:08;;;;;;;;;;;;;;;;;;5141893;28;20424;-58
2023/12/17 14:22:39;;;;;;;;;;;;;;;;;;5125671;28;19922;-57
2023/12/17 14:25:10;;;;;;;;;;;;;;;;;;5139895;28;19918;-57
2023/12/17 14:27:42;;;;;;;;;;;;;;;;;;5141364;28;19922;-57
2023/12/17 14:30:13;;;;;;;;;;;;;;;;;;5141557;28;19922;-58
2023/12/17 14:32:44;;;;;;;;;;;;;;;;;;5124463;28;20001;-58
2023/12/17 14:35:16;;;;;;;;;;;;;;;;;;5145242;28;20040;-58
2023/12/17 14:37:47;;;;;;;;;;;;;;;;;;5124324;28;19918;-58
2023/12/17 14:40:17;;;;;;;;;;;;;;;;;;5141401;28;20295;-59
2023/12/17 14:42:49;;;;;;;;;;;;;;;;;;5123951;28;19926;-58
2023/12/17 14:45:20;;;;;;;;;;;;;;;;;;5124693;28;20289;-57
2023/12/17 14:47:51;;;;;;;;;;;;;;;;;;5132011;28;19929;-57
2023/12/17 14:50:22;;;;;;;;;;;;;;;;;;5140657;28;19926;-57
2023/12/17 14:52:53;;;;;;;;;;;;;;;;;;5140676;28;19921;-56
2023/12/17 14:55:24;;;;;;;;;;;;;;;;;;5141280;28;19992;-56
2023/12/17 14:57:55;;;;;;;;;;;;;;;;;;5145092;28;19940;-56
2023/12/17 15:00:26;;;;;;;;;;;;;;;;;;5140096;28;20316;-58
2023/12/17 15:02:57;;;;;;;;;;;;;;;;;;5141065;28;19918;-59
2023/12/17 15:05:28;;;;;;;;;;;;;;;;;;5140069;28;19933;-61
2023/12/17 15:07:59;;;;;;;;;;;;;;;;;;5140867;28;19941;-60
2023/12/17 15:10:30;;;;;;;;;;;;;;;;;;5140086;28;19930;-62
2023/12/17 15:13:01;;;;;;;;;;;;;;;;;;5124805;28;19980;-59
2023/12/17 15:15:33;;;;;;;;;;;;;;;;;;5150465;28;20016;-59
2023/12/17 15:18:04;;;;;;;;;;;;;;;;;;5125903;28;19929;-59
2023/12/17 15:20:36;;;;;;;;;;;;;;;;;;5127818;28;19933;-59
2023/12/17 15:23:07;;;;;;;;;;;;;;;;;;5147279;28;19957;-62
2023/12/17 15:25:38;;;;;;;;;;;;;;;;;;5128341;28;20234;-61
2023/12/17 15:28:09;;;;;;;;;;;;;;;;;;5144750;28;19918;-60
2023/12/17 15:30:41;;;;;;;;;;;;;;;;;;5128243;28;19933;-58
2023/12/17 15:33:12;;;;;;;;;;;;;;;;;;5148039;28;19949;-58
2023/12/17 15:35:43;;;;;;;;;;;;;;;;;;5127982;28;19917;-58
2023/12/17 15:38:14;;;;;;;;;;;;;;;;;;5126065;28;20570;-58
2023/12/17 15:40:45;;;;;;;;;;;;;;;;;;5153837;28;19929;-59
2023/12/17 15:43:16;;;;;;;;;;;;;;;;;;5126346;28;19944;-59
2023/12/17 15:45:47;;;;;;;;;;;;;;;;;;5131985;28;19918;-59
2023/12/17 15:48:18;;;;;;;;;;;;;;;;;;5127338;28;20596;-59
2023/12/17 15:50:49;;;;;;;;;;;;;;;;;;5145337;28;19922;-59
2023/12/17 15:53:20;;;;;;;;;;;;;;;;;;5144565;28;19965;-57
2023/12/17 15:55:51;;;;;;;;;;;;;;;;;;5144002;28;20392;-57
2023/12/17 15:58:22;;;;;;;;;;;;;;;;;;5128118;28;19964;-57
2023/12/17 16:00:53;;;;;;;;;;;;;;;;;;5134762;28;19922;-57
2023/12/17 16:03:24;;;;;;;;;;;;;;;;;;5149015;28;20368;-57
2023/12/17 16:05:55;;;;;;;;;;;;;;;;;;5144021;28;19929;-57
2023/12/17 16:08:26;;;;;;;;;;;;;;;;;;5130339;28;20084;-56
2023/12/17 16:10:57;;;;;;;;;;;;;;;;;;5151745;28;20021;-58
2023/12/17 16:13:28;;;;;;;;;;;;;;;;;;5128263;28;20328;-57
2023/12/17 16:15:59;;;;;;;;;;;;;;;;;;5127738;28;19918;-59
2023/12/17 16:18:30;;;;;;;;;;;;;;;;;;5144399;28;19918;-59
2023/12/17 16:21:01;;;;;;;;;;;;;;;;;;5143987;28;19925;-59
2023/12/17 16:23:32;;;;;;;;;;;;;;;;;;5124810;28;19918;-59
2023/12/17 16:26:03;;;;;;;;;;;;;;;;;;5143568;28;19918;-59
2023/12/17 16:28:34;;;;;;;;;;;;;;;;;;5127042;28;19926;-59
2023/12/17 16:31:05;;;;;;;;;;;;;;;;;;5131843;28;19933;-58
2023/12/17 16:33:36;;;;;;;;;;;;;;;;;;5127466;28;19918;-59
2023/12/17 16:36:07;;;;;;;;;;;;;;;;;;5143362;28;20013;-59
2023/12/17 16:38:38;;;;;;;;;;;;;;;;;;5131857;28;19972;-59
2023/12/17 16:41:09;;;;;;;;;;;;;;;;;;5143618;28;19922;-57
2023/12/17 16:43:40;;;;;;;;;;;;;;;;;;5143541;28;19922;-58
2023/12/17 16:46:11;;;;;;;;;;;;;;;;;;5139198;28;19944;-58
2023/12/17 16:48:42;;;;;;;;;;;;;;;;;;5127405;28;19925;-58
2023/12/17 16:51:13;;;;;;;;;;;;;;;;;;5158004;28;19921;-61
2023/12/17 16:53:47;;;;;;;;;;;;;;;;;;5144115;28;19948;-58
2023/12/17 16:56:22;;;;;;;;;;;;;;;;;;5126864;28;19918;-60
2023/12/17 16:58:53;;;;;;;;;;;;;;;;;;5144983;28;20309;-59
2023/12/17 17:01:24;;;;;;;;;;;;;;;;;;5133330;28;19918;-58
2023/12/17 17:03:55;;;;;;;;;;;;;;;;;;5143074;28;20365;-57
2023/12/17 17:06:26;;;;;;;;;;;;;;;;;;5142511;28;19976;-58
2023/12/17 17:08:57;;;;;;;;;;;;;;;;;;5131271;28;19941;-60
2023/12/17 17:11:28;;;;;;;;;;;;;;;;;;5126139;28;19922;-58